sensor_id;sensor_type;location;lat;lon;timestamp;P1;durP1;ratioP1;P2;durP2;ratioP2
31224;SDS011;17847;31.524;74.366;2023-07-08T00:00:56;22.90;;;16.85;;
31224;SDS011;17847;31.524;74.366;2023-07-08T00:03:26;22.48;;;15.75;;
31224;SDS011;17847;31.524;74.366;2023-07-08T00:05:56;21.17;;;15.40;;
31224;SDS011;17847;31.524;74.366;2023-07-08T00:08:25;23.83;;;16.38;;
31224;SDS011;17847;31.524;74.366;2023-07-08T00:10:55;23.45;;;15.65;;
31224;SDS011;17847;31.524;74.366;2023-07-08T00:13:25;24.83;;;16.08;;
31224;SDS011;17847;31.524;74.366;2023-07-08T00:15:55;17.75;;;12.75;;
31224;SDS011;17847;31.524;74.366;2023-07-08T00:18:24;10.95;;;7.43;;
31224;SDS011;17847;31.524;74.366;2023-07-08T00:20:53;12.05;;;6.43;;
31224;SDS011;17847;31.524;74.366;2023-07-08T00:23:23;13.35;;;4.97;;
31224;SDS011;17847;31.524;74.366;2023-07-08T00:25:53;13.02;;;4.82;;
31224;SDS011;17847;31.524;74.366;2023-07-08T00:28:23;13.30;;;4.75;;
31224;SDS011;17847;31.524;74.366;2023-07-08T00:30:53;7.25;;;4.10;;
31224;SDS011;17847;31.524;74.366;2023-07-08T00:33:25;4.88;;;4.00;;
31224;SDS011;17847;31.524;74.366;2023-07-08T00:35:54;5.07;;;4.05;;
31224;SDS011;17847;31.524;74.366;2023-07-08T00:38:24;7.00;;;3.60;;
31224;SDS011;17847;31.524;74.366;2023-07-08T00:49:11;5.22;;;3.67;;
31224;SDS011;17847;31.524;74.366;2023-07-08T00:54:59;7.25;;;4.43;;
31224;SDS011;17847;31.524;74.366;2023-07-08T00:57:36;9.02;;;4.45;;
31224;SDS011;17847;31.524;74.366;2023-07-08T01:00:10;6.60;;;3.63;;
31224;SDS011;17847;31.524;74.366;2023-07-08T01:02:46;7.47;;;4.00;;
31224;SDS011;17847;31.524;74.366;2023-07-08T01:05:19;5.47;;;3.55;;
31224;SDS011;17847;31.524;74.366;2023-07-08T01:07:58;6.03;;;4.05;;
31224;SDS011;17847;31.524;74.366;2023-07-08T01:10:51;4.10;;;3.55;;
31224;SDS011;17847;31.524;74.366;2023-07-08T01:13:27;6.35;;;3.70;;
31224;SDS011;17847;31.524;74.366;2023-07-08T01:16:03;4.93;;;3.58;;
31224;SDS011;17847;31.524;74.366;2023-07-08T01:18:33;5.43;;;3.78;;
31224;SDS011;17847;31.524;74.366;2023-07-08T01:21:05;4.78;;;3.75;;
31224;SDS011;17847;31.524;74.366;2023-07-08T01:23:56;4.97;;;3.75;;
31224;SDS011;17847;31.524;74.366;2023-07-08T01:26:26;4.55;;;3.55;;
31224;SDS011;17847;31.524;74.366;2023-07-08T01:28:58;6.25;;;4.47;;
31224;SDS011;17847;31.524;74.366;2023-07-08T01:31:27;11.13;;;4.00;;
31224;SDS011;17847;31.524;74.366;2023-07-08T01:33:57;7.82;;;4.30;;
31224;SDS011;17847;31.524;74.366;2023-07-08T01:36:29;8.00;;;4.18;;
31224;SDS011;17847;31.524;74.366;2023-07-08T01:39:06;6.72;;;3.58;;
31224;SDS011;17847;31.524;74.366;2023-07-08T01:41:39;4.90;;;3.20;;
31224;SDS011;17847;31.524;74.366;2023-07-08T01:44:26;5.88;;;3.17;;
31224;SDS011;17847;31.524;74.366;2023-07-08T01:47:08;7.40;;;2.40;;
31224;SDS011;17847;31.524;74.366;2023-07-08T01:49:44;2.90;;;2.03;;
31224;SDS011;17847;31.524;74.366;2023-07-08T01:52:16;2.83;;;2.15;;
31224;SDS011;17847;31.524;74.366;2023-07-08T01:54:54;3.17;;;2.03;;
31224;SDS011;17847;31.524;74.366;2023-07-08T01:57:24;4.47;;;2.20;;
31224;SDS011;17847;31.524;74.366;2023-07-08T01:59:53;2.67;;;2.25;;
31224;SDS011;17847;31.524;74.366;2023-07-08T02:02:23;3.92;;;2.15;;
31224;SDS011;17847;31.524;74.366;2023-07-08T02:04:53;2.95;;;2.00;;
31224;SDS011;17847;31.524;74.366;2023-07-08T02:07:24;4.50;;;2.47;;
31224;SDS011;17847;31.524;74.366;2023-07-08T02:09:53;2.67;;;1.85;;
31224;SDS011;17847;31.524;74.366;2023-07-08T02:12:22;3.53;;;1.80;;
31224;SDS011;17847;31.524;74.366;2023-07-08T02:16:17;5.43;;;1.90;;
31224;SDS011;17847;31.524;74.366;2023-07-08T02:18:46;2.97;;;1.55;;
31224;SDS011;17847;31.524;74.366;2023-07-08T02:21:16;2.78;;;2.20;;
31224;SDS011;17847;31.524;74.366;2023-07-08T02:23:49;2.55;;;2.00;;
31224;SDS011;17847;31.524;74.366;2023-07-08T02:26:20;4.47;;;2.50;;
31224;SDS011;17847;31.524;74.366;2023-07-08T02:28:49;3.60;;;2.60;;
31224;SDS011;17847;31.524;74.366;2023-07-08T02:31:19;5.45;;;2.75;;
31224;SDS011;17847;31.524;74.366;2023-07-08T02:33:53;4.72;;;3.63;;
31224;SDS011;17847;31.524;74.366;2023-07-08T02:36:23;4.28;;;3.10;;
31224;SDS011;17847;31.524;74.366;2023-07-08T02:38:52;5.72;;;3.90;;
31224;SDS011;17847;31.524;74.366;2023-07-08T02:41:21;4.70;;;3.55;;
31224;SDS011;17847;31.524;74.366;2023-07-08T02:43:51;5.13;;;3.47;;
31224;SDS011;17847;31.524;74.366;2023-07-08T02:46:20;5.93;;;3.33;;
31224;SDS011;17847;31.524;74.366;2023-07-08T02:48:50;4.38;;;3.50;;
31224;SDS011;17847;31.524;74.366;2023-07-08T02:51:19;6.18;;;4.00;;
31224;SDS011;17847;31.524;74.366;2023-07-08T02:53:49;5.55;;;3.80;;
31224;SDS011;17847;31.524;74.366;2023-07-08T02:56:19;6.35;;;3.45;;
31224;SDS011;17847;31.524;74.366;2023-07-08T02:58:51;3.53;;;3.22;;
31224;SDS011;17847;31.524;74.366;2023-07-08T03:01:21;3.67;;;3.17;;
31224;SDS011;17847;31.524;74.366;2023-07-08T03:03:52;5.43;;;3.95;;
31224;SDS011;17847;31.524;74.366;2023-07-08T03:06:29;4.10;;;3.63;;
31224;SDS011;17847;31.524;74.366;2023-07-08T03:09:01;3.97;;;3.33;;
31224;SDS011;17847;31.524;74.366;2023-07-08T03:11:31;5.60;;;3.70;;
31224;SDS011;17847;31.524;74.366;2023-07-08T03:14:00;5.75;;;3.75;;
31224;SDS011;17847;31.524;74.366;2023-07-08T03:16:31;5.47;;;4.13;;
31224;SDS011;17847;31.524;74.366;2023-07-08T03:19:01;4.63;;;3.72;;
31224;SDS011;17847;31.524;74.366;2023-07-08T03:21:33;4.00;;;3.38;;
31224;SDS011;17847;31.524;74.366;2023-07-08T03:24:02;4.43;;;3.75;;
31224;SDS011;17847;31.524;74.366;2023-07-08T03:26:32;4.50;;;3.70;;
31224;SDS011;17847;31.524;74.366;2023-07-08T03:29:03;4.57;;;3.25;;
31224;SDS011;17847;31.524;74.366;2023-07-08T03:31:33;4.25;;;3.75;;
31224;SDS011;17847;31.524;74.366;2023-07-08T03:34:03;5.35;;;3.88;;
31224;SDS011;17847;31.524;74.366;2023-07-08T03:36:33;5.43;;;3.90;;
31224;SDS011;17847;31.524;74.366;2023-07-08T03:39:02;4.93;;;4.05;;
31224;SDS011;17847;31.524;74.366;2023-07-08T03:41:31;6.07;;;4.43;;
31224;SDS011;17847;31.524;74.366;2023-07-08T03:44:01;5.10;;;4.10;;
31224;SDS011;17847;31.524;74.366;2023-07-08T03:46:30;5.93;;;4.40;;
31224;SDS011;17847;31.524;74.366;2023-07-08T03:49:01;5.60;;;4.28;;
31224;SDS011;17847;31.524;74.366;2023-07-08T03:51:33;5.72;;;4.25;;
31224;SDS011;17847;31.524;74.366;2023-07-08T03:54:06;4.97;;;4.38;;
31224;SDS011;17847;31.524;74.366;2023-07-08T03:56:40;4.93;;;4.10;;
31224;SDS011;17847;31.524;74.366;2023-07-08T03:59:10;7.32;;;5.03;;
31224;SDS011;17847;31.524;74.366;2023-07-08T04:01:40;4.85;;;4.07;;
31224;SDS011;17847;31.524;74.366;2023-07-08T04:04:12;6.25;;;4.47;;
31224;SDS011;17847;31.524;74.366;2023-07-08T04:06:44;6.88;;;4.90;;
31224;SDS011;17847;31.524;74.366;2023-07-08T04:09:14;5.80;;;5.00;;
31224;SDS011;17847;31.524;74.366;2023-07-08T04:11:44;6.35;;;4.72;;
31224;SDS011;17847;31.524;74.366;2023-07-08T04:14:14;5.82;;;4.93;;
31224;SDS011;17847;31.524;74.366;2023-07-08T04:16:50;6.80;;;5.28;;
31224;SDS011;17847;31.524;74.366;2023-07-08T04:19:27;5.25;;;4.55;;
31224;SDS011;17847;31.524;74.366;2023-07-08T04:21:56;8.05;;;5.35;;
31224;SDS011;17847;31.524;74.366;2023-07-08T04:24:25;6.97;;;5.53;;
31224;SDS011;17847;31.524;74.366;2023-07-08T04:26:55;7.35;;;5.18;;
31224;SDS011;17847;31.524;74.366;2023-07-08T04:29:24;6.60;;;5.25;;
31224;SDS011;17847;31.524;74.366;2023-07-08T04:31:54;8.15;;;5.45;;
31224;SDS011;17847;31.524;74.366;2023-07-08T04:34:23;5.72;;;5.18;;
31224;SDS011;17847;31.524;74.366;2023-07-08T04:36:53;7.65;;;5.50;;
31224;SDS011;17847;31.524;74.366;2023-07-08T04:39:22;8.73;;;6.60;;
31224;SDS011;17847;31.524;74.366;2023-07-08T04:41:51;8.90;;;6.75;;
31224;SDS011;17847;31.524;74.366;2023-07-08T04:44:21;9.00;;;7.13;;
31224;SDS011;17847;31.524;74.366;2023-07-08T04:46:54;8.52;;;7.43;;
31224;SDS011;17847;31.524;74.366;2023-07-08T04:49:25;10.48;;;7.65;;
31224;SDS011;17847;31.524;74.366;2023-07-08T04:52:01;10.60;;;7.88;;
31224;SDS011;17847;31.524;74.366;2023-07-08T04:54:31;9.30;;;7.85;;
31224;SDS011;17847;31.524;74.366;2023-07-08T04:57:00;10.80;;;9.02;;
31224;SDS011;17847;31.524;74.366;2023-07-08T04:59:30;12.65;;;9.60;;
31224;SDS011;17847;31.524;74.366;2023-07-08T05:02:03;13.35;;;9.30;;
31224;SDS011;17847;31.524;74.366;2023-07-08T05:04:32;11.27;;;9.38;;
31224;SDS011;17847;31.524;74.366;2023-07-08T05:07:02;11.43;;;9.30;;
31224;SDS011;17847;31.524;74.366;2023-07-08T05:09:32;11.55;;;9.90;;
31224;SDS011;17847;31.524;74.366;2023-07-08T05:12:04;13.32;;;9.50;;
31224;SDS011;17847;31.524;74.366;2023-07-08T05:14:34;13.57;;;10.23;;
31224;SDS011;17847;31.524;74.366;2023-07-08T05:17:04;11.07;;;9.05;;
31224;SDS011;17847;31.524;74.366;2023-07-08T05:19:35;12.75;;;9.52;;
31224;SDS011;17847;31.524;74.366;2023-07-08T05:22:05;11.98;;;10.23;;
31224;SDS011;17847;31.524;74.366;2023-07-08T05:24:35;11.95;;;9.32;;
31224;SDS011;17847;31.524;74.366;2023-07-08T05:27:05;14.35;;;9.77;;
31224;SDS011;17847;31.524;74.366;2023-07-08T05:29:35;11.07;;;8.95;;
31224;SDS011;17847;31.524;74.366;2023-07-08T05:32:05;10.18;;;8.60;;
31224;SDS011;17847;31.524;74.366;2023-07-08T05:34:35;9.52;;;8.57;;
31224;SDS011;17847;31.524;74.366;2023-07-08T05:37:05;10.75;;;7.93;;
31224;SDS011;17847;31.524;74.366;2023-07-08T05:39:34;7.70;;;6.88;;
31224;SDS011;17847;31.524;74.366;2023-07-08T05:42:04;7.65;;;6.88;;
31224;SDS011;17847;31.524;74.366;2023-07-08T05:44:34;7.20;;;6.50;;
31224;SDS011;17847;31.524;74.366;2023-07-08T05:47:03;8.18;;;7.30;;
31224;SDS011;17847;31.524;74.366;2023-07-08T05:49:33;8.43;;;7.32;;
31224;SDS011;17847;31.524;74.366;2023-07-08T05:52:04;7.32;;;6.63;;
31224;SDS011;17847;31.524;74.366;2023-07-08T05:54:40;7.20;;;6.40;;
31224;SDS011;17847;31.524;74.366;2023-07-08T05:57:10;7.97;;;7.18;;
31224;SDS011;17847;31.524;74.366;2023-07-08T05:59:41;8.82;;;6.78;;
31224;SDS011;17847;31.524;74.366;2023-07-08T06:02:15;7.72;;;6.82;;
31224;SDS011;17847;31.524;74.366;2023-07-08T06:04:45;8.50;;;7.53;;
31224;SDS011;17847;31.524;74.366;2023-07-08T06:07:15;7.65;;;6.93;;
31224;SDS011;17847;31.524;74.366;2023-07-08T06:09:45;7.78;;;6.78;;
31224;SDS011;17847;31.524;74.366;2023-07-08T06:12:15;9.38;;;7.00;;
31224;SDS011;17847;31.524;74.366;2023-07-08T06:14:44;8.40;;;7.57;;
31224;SDS011;17847;31.524;74.366;2023-07-08T06:17:14;9.68;;;7.38;;
31224;SDS011;17847;31.524;74.366;2023-07-08T06:19:46;8.23;;;7.15;;
31224;SDS011;17847;31.524;74.366;2023-07-08T06:22:16;8.00;;;7.20;;
31224;SDS011;17847;31.524;74.366;2023-07-08T06:25:07;8.43;;;7.53;;
31224;SDS011;17847;31.524;74.366;2023-07-08T06:27:37;9.48;;;7.68;;
31224;SDS011;17847;31.524;74.366;2023-07-08T06:30:07;10.07;;;8.15;;
31224;SDS011;17847;31.524;74.366;2023-07-08T06:32:38;10.82;;;8.52;;
31224;SDS011;17847;31.524;74.366;2023-07-08T06:35:09;10.60;;;8.48;;
31224;SDS011;17847;31.524;74.366;2023-07-08T06:37:38;8.85;;;7.95;;
31224;SDS011;17847;31.524;74.366;2023-07-08T06:40:08;9.63;;;8.63;;
31224;SDS011;17847;31.524;74.366;2023-07-08T06:42:41;9.65;;;8.65;;
31224;SDS011;17847;31.524;74.366;2023-07-08T06:45:19;10.05;;;9.05;;
31224;SDS011;17847;31.524;74.366;2023-07-08T06:47:49;10.07;;;9.07;;
31224;SDS011;17847;31.524;74.366;2023-07-08T06:50:18;11.35;;;9.52;;
31224;SDS011;17847;31.524;74.366;2023-07-08T06:52:47;12.05;;;10.02;;
31224;SDS011;17847;31.524;74.366;2023-07-08T06:55:17;12.25;;;10.02;;
31224;SDS011;17847;31.524;74.366;2023-07-08T06:57:47;14.48;;;11.90;;
31224;SDS011;17847;31.524;74.366;2023-07-08T07:00:17;14.15;;;11.70;;
31224;SDS011;17847;31.524;74.366;2023-07-08T07:02:47;17.15;;;13.52;;
31224;SDS011;17847;31.524;74.366;2023-07-08T07:05:16;14.10;;;12.05;;
31224;SDS011;17847;31.524;74.366;2023-07-08T07:07:50;16.20;;;12.07;;
31224;SDS011;17847;31.524;74.366;2023-07-08T07:10:21;17.35;;;12.25;;
31224;SDS011;17847;31.524;74.366;2023-07-08T07:12:51;16.02;;;13.23;;
31224;SDS011;17847;31.524;74.366;2023-07-08T07:15:21;14.85;;;11.52;;
31224;SDS011;17847;31.524;74.366;2023-07-08T07:17:50;15.73;;;12.30;;
31224;SDS011;17847;31.524;74.366;2023-07-08T07:20:20;15.23;;;12.85;;
31224;SDS011;17847;31.524;74.366;2023-07-08T07:22:49;17.88;;;13.75;;
31224;SDS011;17847;31.524;74.366;2023-07-08T07:25:20;19.20;;;15.02;;
31224;SDS011;17847;31.524;74.366;2023-07-08T07:27:51;21.00;;;16.20;;
31224;SDS011;17847;31.524;74.366;2023-07-08T07:30:21;21.98;;;16.85;;
31224;SDS011;17847;31.524;74.366;2023-07-08T07:32:51;23.52;;;16.98;;
31224;SDS011;17847;31.524;74.366;2023-07-08T07:35:21;21.70;;;16.83;;
31224;SDS011;17847;31.524;74.366;2023-07-08T07:37:51;23.10;;;18.05;;
31224;SDS011;17847;31.524;74.366;2023-07-08T07:40:21;25.42;;;19.70;;
31224;SDS011;17847;31.524;74.366;2023-07-08T07:42:51;22.67;;;18.50;;
31224;SDS011;17847;31.524;74.366;2023-07-08T07:45:21;25.63;;;20.52;;
31224;SDS011;17847;31.524;74.366;2023-07-08T07:47:51;23.90;;;19.27;;
31224;SDS011;17847;31.524;74.366;2023-07-08T07:50:21;23.33;;;19.30;;
31224;SDS011;17847;31.524;74.366;2023-07-08T07:52:51;25.75;;;19.50;;
31224;SDS011;17847;31.524;74.366;2023-07-08T07:55:20;26.15;;;19.55;;
31224;SDS011;17847;31.524;74.366;2023-07-08T07:57:50;24.45;;;20.17;;
31224;SDS011;17847;31.524;74.366;2023-07-08T08:00:19;23.25;;;19.55;;
31224;SDS011;17847;31.524;74.366;2023-07-08T08:02:50;22.95;;;19.05;;
31224;SDS011;17847;31.524;74.366;2023-07-08T08:05:20;21.98;;;18.70;;
31224;SDS011;17847;31.524;74.366;2023-07-08T08:07:49;19.98;;;17.13;;
31224;SDS011;17847;31.524;74.366;2023-07-08T08:10:19;23.25;;;18.13;;
31224;SDS011;17847;31.524;74.366;2023-07-08T08:12:49;17.63;;;15.63;;
31224;SDS011;17847;31.524;74.366;2023-07-08T08:15:22;16.83;;;15.03;;
31224;SDS011;17847;31.524;74.366;2023-07-08T08:17:51;16.90;;;14.70;;
31224;SDS011;17847;31.524;74.366;2023-07-08T08:20:22;16.10;;;14.45;;
31224;SDS011;17847;31.524;74.366;2023-07-08T08:22:53;14.95;;;13.48;;
31224;SDS011;17847;31.524;74.366;2023-07-08T08:25:24;15.25;;;13.75;;
31224;SDS011;17847;31.524;74.366;2023-07-08T08:27:53;16.02;;;14.13;;
31224;SDS011;17847;31.524;74.366;2023-07-08T08:30:23;14.00;;;12.60;;
31224;SDS011;17847;31.524;74.366;2023-07-08T08:32:52;12.85;;;11.65;;
31224;SDS011;17847;31.524;74.366;2023-07-08T08:35:22;10.77;;;9.77;;
31224;SDS011;17847;31.524;74.366;2023-07-08T08:37:52;8.52;;;7.63;;
31224;SDS011;17847;31.524;74.366;2023-07-08T08:40:22;6.40;;;5.80;;
31224;SDS011;17847;31.524;74.366;2023-07-08T08:45:26;4.70;;;3.80;;
31224;SDS011;17847;31.524;74.366;2023-07-08T08:48:00;5.03;;;3.53;;
31224;SDS011;17847;31.524;74.366;2023-07-08T08:50:47;4.75;;;3.63;;
31224;SDS011;17847;31.524;74.366;2023-07-08T08:53:21;3.70;;;3.40;;
31224;SDS011;17847;31.524;74.366;2023-07-08T08:55:58;3.85;;;3.42;;
31224;SDS011;17847;31.524;74.366;2023-07-08T09:01:47;4.72;;;4.32;;
31224;SDS011;17847;31.524;74.366;2023-07-08T09:04:20;5.07;;;4.68;;
31224;SDS011;17847;31.524;74.366;2023-07-08T09:06:58;7.10;;;6.43;;
31224;SDS011;17847;31.524;74.366;2023-07-08T09:09:38;11.88;;;8.27;;
31224;SDS011;17847;31.524;74.366;2023-07-08T09:12:18;9.43;;;7.88;;
31224;SDS011;17847;31.524;74.366;2023-07-08T09:17:57;6.03;;;5.43;;
31224;SDS011;17847;31.524;74.366;2023-07-08T09:20:44;4.60;;;4.07;;
31224;SDS011;17847;31.524;74.366;2023-07-08T09:23:18;5.07;;;4.55;;
31224;SDS011;17847;31.524;74.366;2023-07-08T09:26:02;11.70;;;8.57;;
31224;SDS011;17847;31.524;74.366;2023-07-08T09:28:45;11.13;;;8.23;;
31224;SDS011;17847;31.524;74.366;2023-07-08T09:31:25;10.88;;;7.78;;
31224;SDS011;17847;31.524;74.366;2023-07-08T09:34:14;3.97;;;3.58;;
31224;SDS011;17847;31.524;74.366;2023-07-08T09:36:46;2.40;;;2.20;;
31224;SDS011;17847;31.524;74.366;2023-07-08T09:39:20;1.58;;;1.48;;
31224;SDS011;17847;31.524;74.366;2023-07-08T09:41:50;2.00;;;1.60;;
31224;SDS011;17847;31.524;74.366;2023-07-08T09:46:55;2.78;;;2.40;;
31224;SDS011;17847;31.524;74.366;2023-07-08T09:49:36;2.63;;;2.33;;
31224;SDS011;17847;31.524;74.366;2023-07-08T09:52:06;1.75;;;1.20;;
31224;SDS011;17847;31.524;74.366;2023-07-08T09:54:35;1.80;;;0.90;;
31224;SDS011;17847;31.524;74.366;2023-07-08T09:57:09;1.20;;;1.10;;
31224;SDS011;17847;31.524;74.366;2023-07-08T09:59:47;2.10;;;1.38;;
31224;SDS011;17847;31.524;74.366;2023-07-08T10:05:01;1.92;;;1.77;;
31224;SDS011;17847;31.524;74.366;2023-07-08T10:07:55;1.80;;;1.70;;
31224;SDS011;17847;31.524;74.366;2023-07-08T10:10:30;2.53;;;1.75;;
31224;SDS011;17847;31.524;74.366;2023-07-08T10:13:18;1.90;;;1.80;;
31224;SDS011;17847;31.524;74.366;2023-07-08T10:15:58;2.05;;;1.90;;
31224;SDS011;17847;31.524;74.366;2023-07-08T10:18:37;1.70;;;1.60;;
31224;SDS011;17847;31.524;74.366;2023-07-08T10:23:48;2.75;;;1.13;;
31224;SDS011;17847;31.524;74.366;2023-07-08T10:26:30;1.38;;;1.00;;
31224;SDS011;17847;31.524;74.366;2023-07-08T10:29:23;2.08;;;1.20;;
31224;SDS011;17847;31.524;74.366;2023-07-08T10:46:37;2.42;;;1.42;;
31224;SDS011;17847;31.524;74.366;2023-07-08T10:52:27;1.60;;;1.40;;
31224;SDS011;17847;31.524;74.366;2023-07-08T11:06:48;1.75;;;1.15;;
31224;SDS011;17847;31.524;74.366;2023-07-08T11:09:43;2.58;;;1.00;;
31224;SDS011;17847;31.524;74.366;2023-07-08T11:12:42;1.55;;;1.10;;
31224;SDS011;17847;31.524;74.366;2023-07-08T11:15:22;1.10;;;0.90;;
31224;SDS011;17847;31.524;74.366;2023-07-08T11:18:00;1.25;;;0.82;;
31224;SDS011;17847;31.524;74.366;2023-07-08T11:24:13;1.30;;;0.77;;
31224;SDS011;17847;31.524;74.366;2023-07-08T11:32:42;1.73;;;1.08;;
31224;SDS011;17847;31.524;74.366;2023-07-08T11:35:33;1.55;;;0.88;;
31224;SDS011;17847;31.524;74.366;2023-07-08T11:38:17;1.25;;;0.80;;
31224;SDS011;17847;31.524;74.366;2023-07-08T11:43:27;1.13;;;0.80;;
31224;SDS011;17847;31.524;74.366;2023-07-08T11:46:33;1.60;;;1.00;;
31224;SDS011;17847;31.524;74.366;2023-07-08T11:49:10;1.23;;;0.95;;
31224;SDS011;17847;31.524;74.366;2023-07-08T11:51:43;2.72;;;1.10;;
31224;SDS011;17847;31.524;74.366;2023-07-08T11:54:30;2.10;;;1.10;;
31224;SDS011;17847;31.524;74.366;2023-07-08T11:57:05;1.15;;;0.95;;
31224;SDS011;17847;31.524;74.366;2023-07-08T11:59:38;0.98;;;0.98;;
31224;SDS011;17847;31.524;74.366;2023-07-08T12:04:58;2.05;;;1.13;;
31224;SDS011;17847;31.524;74.366;2023-07-08T12:07:47;2.33;;;1.15;;
31224;SDS011;17847;31.524;74.366;2023-07-08T12:10:30;1.40;;;1.02;;
31224;SDS011;17847;31.524;74.366;2023-07-08T12:13:02;3.25;;;1.30;;
31224;SDS011;17847;31.524;74.366;2023-07-08T12:15:34;1.27;;;1.17;;
31224;SDS011;17847;31.524;74.366;2023-07-08T12:18:09;1.50;;;1.05;;
31224;SDS011;17847;31.524;74.366;2023-07-08T12:21:14;2.55;;;1.50;;
31224;SDS011;17847;31.524;74.366;2023-07-08T12:23:46;1.85;;;1.23;;
31224;SDS011;17847;31.524;74.366;2023-07-08T12:26:17;1.40;;;1.30;;
31224;SDS011;17847;31.524;74.366;2023-07-08T12:28:47;1.92;;;1.40;;
31224;SDS011;17847;31.524;74.366;2023-07-08T12:31:17;1.20;;;1.10;;
31224;SDS011;17847;31.524;74.366;2023-07-08T12:36:20;1.33;;;1.00;;
31224;SDS011;17847;31.524;74.366;2023-07-08T12:38:58;1.90;;;1.15;;
31224;SDS011;17847;31.524;74.366;2023-07-08T12:41:31;1.70;;;1.30;;
31224;SDS011;17847;31.524;74.366;2023-07-08T12:44:08;1.25;;;1.10;;
31224;SDS011;17847;31.524;74.366;2023-07-08T12:46:53;1.83;;;1.20;;
31224;SDS011;17847;31.524;74.366;2023-07-08T12:49:24;1.92;;;1.60;;
31224;SDS011;17847;31.524;74.366;2023-07-08T12:51:59;2.60;;;1.20;;
31224;SDS011;17847;31.524;74.366;2023-07-08T12:54:30;1.30;;;1.20;;
31224;SDS011;17847;31.524;74.366;2023-07-08T12:57:01;2.25;;;1.40;;
31224;SDS011;17847;31.524;74.366;2023-07-08T12:59:31;1.60;;;1.20;;
31224;SDS011;17847;31.524;74.366;2023-07-08T13:02:01;1.70;;;1.35;;
31224;SDS011;17847;31.524;74.366;2023-07-08T13:04:32;1.80;;;1.40;;
31224;SDS011;17847;31.524;74.366;2023-07-08T13:07:05;2.20;;;1.20;;
31224;SDS011;17847;31.524;74.366;2023-07-08T13:09:39;1.77;;;1.10;;
31224;SDS011;17847;31.524;74.366;2023-07-08T13:12:19;2.25;;;1.00;;
31224;SDS011;17847;31.524;74.366;2023-07-08T13:14:53;1.02;;;0.75;;
31224;SDS011;17847;31.524;74.366;2023-07-08T13:19:56;1.85;;;1.00;;
31224;SDS011;17847;31.524;74.366;2023-07-08T13:22:27;1.15;;;0.88;;
31224;SDS011;17847;31.524;74.366;2023-07-08T13:25:00;1.67;;;1.33;;
31224;SDS011;17847;31.524;74.366;2023-07-08T13:27:31;1.10;;;1.00;;
31224;SDS011;17847;31.524;74.366;2023-07-08T13:30:19;2.05;;;1.23;;
31224;SDS011;17847;31.524;74.366;2023-07-08T13:32:55;1.52;;;1.20;;
31224;SDS011;17847;31.524;74.366;2023-07-08T13:35:28;2.40;;;1.25;;
31224;SDS011;17847;31.524;74.366;2023-07-08T13:38:12;1.60;;;1.23;;
31224;SDS011;17847;31.524;74.366;2023-07-08T13:40:46;1.95;;;1.40;;
31224;SDS011;17847;31.524;74.366;2023-07-08T13:43:22;1.63;;;1.30;;
31224;SDS011;17847;31.524;74.366;2023-07-08T13:45:57;1.83;;;1.35;;
31224;SDS011;17847;31.524;74.366;2023-07-08T13:48:29;2.17;;;1.30;;
31224;SDS011;17847;31.524;74.366;2023-07-08T13:58:52;2.60;;;1.48;;
31224;SDS011;17847;31.524;74.366;2023-07-08T14:01:30;2.58;;;1.70;;
31224;SDS011;17847;31.524;74.366;2023-07-08T14:06:34;1.80;;;1.52;;
31224;SDS011;17847;31.524;74.366;2023-07-08T14:09:12;3.55;;;2.05;;
31224;SDS011;17847;31.524;74.366;2023-07-08T14:11:44;1.95;;;1.50;;
31224;SDS011;17847;31.524;74.366;2023-07-08T14:14:14;3.13;;;1.40;;
31224;SDS011;17847;31.524;74.366;2023-07-08T14:16:45;1.95;;;1.52;;
31224;SDS011;17847;31.524;74.366;2023-07-08T14:19:24;2.92;;;1.50;;
31224;SDS011;17847;31.524;74.366;2023-07-08T14:21:58;3.00;;;1.42;;
31224;SDS011;17847;31.524;74.366;2023-07-08T14:24:52;2.05;;;1.40;;
31224;SDS011;17847;31.524;74.366;2023-07-08T14:27:23;2.13;;;1.40;;
31224;SDS011;17847;31.524;74.366;2023-07-08T14:29:52;2.30;;;1.30;;
31224;SDS011;17847;31.524;74.366;2023-07-08T14:32:23;2.75;;;1.60;;
31224;SDS011;17847;31.524;74.366;2023-07-08T14:35:40;3.00;;;1.60;;
31224;SDS011;17847;31.524;74.366;2023-07-08T14:37:55;2.55;;;1.30;;
31224;SDS011;17847;31.524;74.366;2023-07-08T14:40:29;3.50;;;1.40;;
31224;SDS011;17847;31.524;74.366;2023-07-08T14:43:13;1.60;;;1.40;;
31224;SDS011;17847;31.524;74.366;2023-07-08T14:45:48;1.80;;;1.40;;
31224;SDS011;17847;31.524;74.366;2023-07-08T14:48:20;3.17;;;1.30;;
31224;SDS011;17847;31.524;74.366;2023-07-08T14:50:53;2.80;;;1.60;;
31224;SDS011;17847;31.524;74.366;2023-07-08T14:53:24;1.83;;;1.40;;
31224;SDS011;17847;31.524;74.366;2023-07-08T14:55:55;1.65;;;1.55;;
31224;SDS011;17847;31.524;74.366;2023-07-08T14:58:27;2.35;;;1.33;;
31224;SDS011;17847;31.524;74.366;2023-07-08T15:00:59;1.70;;;1.60;;
31224;SDS011;17847;31.524;74.366;2023-07-08T15:03:36;2.45;;;1.30;;
31224;SDS011;17847;31.524;74.366;2023-07-08T15:06:09;1.52;;;1.20;;
31224;SDS011;17847;31.524;74.366;2023-07-08T15:08:40;2.08;;;1.45;;
31224;SDS011;17847;31.524;74.366;2023-07-08T15:11:10;1.60;;;1.40;;
31224;SDS011;17847;31.524;74.366;2023-07-08T15:13:41;2.45;;;1.52;;
31224;SDS011;17847;31.524;74.366;2023-07-08T15:16:14;1.42;;;1.30;;
31224;SDS011;17847;31.524;74.366;2023-07-08T15:18:45;3.08;;;2.10;;
31224;SDS011;17847;31.524;74.366;2023-07-08T15:21:15;2.30;;;2.10;;
31224;SDS011;17847;31.524;74.366;2023-07-08T15:23:45;5.85;;;3.88;;
31224;SDS011;17847;31.524;74.366;2023-07-08T15:26:14;3.55;;;2.80;;
31224;SDS011;17847;31.524;74.366;2023-07-08T15:28:46;11.02;;;7.20;;
31224;SDS011;17847;31.524;74.366;2023-07-08T15:31:20;11.38;;;9.43;;
31224;SDS011;17847;31.524;74.366;2023-07-08T15:33:53;5.63;;;4.38;;
31224;SDS011;17847;31.524;74.366;2023-07-08T15:36:23;7.75;;;4.47;;
31224;SDS011;17847;31.524;74.366;2023-07-08T15:38:52;16.80;;;13.38;;
31224;SDS011;17847;31.524;74.366;2023-07-08T15:41:22;8.48;;;6.47;;
31224;SDS011;17847;31.524;74.366;2023-07-08T15:43:54;7.68;;;5.82;;
31224;SDS011;17847;31.524;74.366;2023-07-08T15:46:26;16.08;;;12.98;;
31224;SDS011;17847;31.524;74.366;2023-07-08T15:51:48;5.55;;;3.88;;
31224;SDS011;17847;31.524;74.366;2023-07-08T15:54:18;9.68;;;7.32;;
31224;SDS011;17847;31.524;74.366;2023-07-08T15:56:49;11.80;;;8.70;;
31224;SDS011;17847;31.524;74.366;2023-07-08T15:59:26;10.93;;;6.95;;
31224;SDS011;17847;31.524;74.366;2023-07-08T16:02:00;9.80;;;7.18;;
31224;SDS011;17847;31.524;74.366;2023-07-08T16:04:40;8.05;;;5.65;;
31224;SDS011;17847;31.524;74.366;2023-07-08T16:07:13;6.72;;;5.18;;
31224;SDS011;17847;31.524;74.366;2023-07-08T16:09:42;5.00;;;4.03;;
31224;SDS011;17847;31.524;74.366;2023-07-08T16:12:13;6.35;;;3.47;;
31224;SDS011;17847;31.524;74.366;2023-07-08T16:14:50;4.30;;;3.53;;
31224;SDS011;17847;31.524;74.366;2023-07-08T16:17:19;3.47;;;2.97;;
31224;SDS011;17847;31.524;74.366;2023-07-08T16:19:49;4.03;;;2.80;;
31224;SDS011;17847;31.524;74.366;2023-07-08T16:22:18;3.85;;;2.78;;
31224;SDS011;17847;31.524;74.366;2023-07-08T16:24:48;4.18;;;2.60;;
31224;SDS011;17847;31.524;74.366;2023-07-08T16:27:17;3.45;;;2.60;;
31224;SDS011;17847;31.524;74.366;2023-07-08T16:29:47;2.60;;;2.40;;
31224;SDS011;17847;31.524;74.366;2023-07-08T16:32:16;3.03;;;2.63;;
31224;SDS011;17847;31.524;74.366;2023-07-08T16:34:46;4.20;;;2.53;;